createdAt,value
2018-03-27T00:02:24.519Z,100876.90
2018-03-27T00:04:52.959Z,100880.58
2018-03-27T00:07:21.486Z,100881.61
2018-03-27T00:09:50.098Z,100890.89
2018-03-27T00:12:18.557Z,100890.96
2018-03-27T00:14:47.089Z,100886.17
2018-03-27T00:17:15.574Z,100890.20
2018-03-27T00:19:44.047Z,100884.41
2018-03-27T00:22:12.529Z,100884.97
2018-03-27T00:24:42.905Z,100883.48
2018-03-27T00:27:10.659Z,100883.89
2018-03-27T00:29:57.690Z,100889.80
2018-03-27T00:32:44.450Z,100898.16
2018-03-27T00:35:30.684Z,100901.76
2018-03-27T00:38:16.836Z,100900.48
2018-03-27T00:40:44.575Z,100901.63
2018-03-27T00:43:13.881Z,100902.02
2018-03-27T00:45:42.609Z,100902.05
2018-03-27T00:48:11.103Z,100906.05
2018-03-27T00:50:39.589Z,100908.22
2018-03-27T00:53:08.034Z,100909.67
2018-03-27T00:55:36.941Z,100909.01
2018-03-27T00:58:05.449Z,100904.44
2018-03-27T01:00:34.086Z,100903.39
2018-03-27T01:03:02.518Z,100909.22
2018-03-27T01:05:31.314Z,100911.92
2018-03-27T01:07:59.848Z,100910.62
2018-03-27T01:10:28.354Z,100912.59
2018-03-27T01:12:56.814Z,100907.51
2018-03-27T01:15:25.359Z,100910.10
2018-03-27T01:17:53.763Z,100905.84
2018-03-27T01:20:22.351Z,100910.99
2018-03-27T01:22:50.858Z,100913.58
2018-03-27T01:25:19.410Z,100909.72
2018-03-27T01:27:47.847Z,100909.86
2018-03-27T01:30:16.352Z,100905.42
2018-03-27T01:32:44.859Z,100913.42
2018-03-27T01:35:13.297Z,100909.49
2018-03-27T01:37:41.843Z,100918.20
2018-03-27T01:40:10.409Z,100914.70
2018-03-27T01:42:39.226Z,100918.89
2018-03-27T01:45:07.655Z,100920.02
2018-03-27T01:47:36.265Z,100921.30
2018-03-27T01:50:04.730Z,100916.84
2018-03-27T01:52:33.157Z,100919.80
2018-03-27T01:55:01.766Z,100919.77
2018-03-27T01:57:30.204Z,100919.72
2018-03-27T01:59:58.965Z,100915.17
2018-03-27T02:02:27.499Z,100916.27
2018-03-27T02:04:56.302Z,100918.13
2018-03-27T02:07:24.824Z,100912.42
2018-03-27T02:09:53.888Z,100910.52
2018-03-27T02:12:27.920Z,100918.35
2018-03-27T02:15:02.003Z,100908.22
2018-03-27T02:17:36.199Z,100913.08
2018-03-27T02:20:10.200Z,100915.64
2018-03-27T02:25:48.117Z,100916.95
2018-03-27T02:28:17.328Z,100918.47
2018-03-27T02:30:45.942Z,100914.17
2018-03-27T02:33:14.632Z,100917.10
2018-03-27T02:35:43.096Z,100911.63
2018-03-27T02:38:11.970Z,100910.07
2018-03-27T02:40:40.454Z,100908.82
2018-03-27T02:43:08.931Z,100905.09
2018-03-27T02:45:37.416Z,100909.11
2018-03-27T02:48:06.065Z,100914.38
2018-03-27T02:50:34.529Z,100915.31
2018-03-27T02:53:03.432Z,100919.44
2018-03-27T02:55:32.101Z,100913.08
2018-03-27T02:58:02.646Z,100915.19
2018-03-27T03:00:31.213Z,100914.89
2018-03-27T03:02:59.796Z,100916.24
2018-03-27T03:05:30.648Z,100910.56
2018-03-27T03:07:59.144Z,100906.78
2018-03-27T03:10:27.876Z,100903.87
2018-03-27T03:12:56.389Z,100909.23
2018-03-27T03:15:24.918Z,100906.20
2018-03-27T03:17:53.452Z,100907.43
2018-03-27T03:20:22.001Z,100899.48
2018-03-27T03:22:50.522Z,100896.39
2018-03-27T03:25:21.184Z,100894.77
2018-03-27T03:27:49.698Z,100891.20
2018-03-27T03:30:18.485Z,100887.63
2018-03-27T03:32:46.930Z,100880.16
2018-03-27T03:35:15.419Z,100887.01
2018-03-27T03:37:44.049Z,100885.28
2018-03-27T03:40:12.649Z,100881.03
2018-03-27T03:42:41.131Z,100884.00
2018-03-27T03:45:09.778Z,100881.17
2018-03-27T03:47:38.632Z,100881.08
2018-03-27T03:50:07.046Z,100883.39
2018-03-27T03:52:35.429Z,100888.27
2018-03-27T03:55:04.127Z,100901.53
2018-03-27T03:57:32.612Z,100891.67
2018-03-27T04:00:01.088Z,100896.31
2018-03-27T04:02:29.771Z,100886.94
2018-03-27T04:04:58.181Z,100888.17
2018-03-27T04:07:26.580Z,100891.99
2018-03-27T04:09:55.195Z,100887.02
2018-03-27T04:12:24.733Z,100893.81
2018-03-27T04:14:53.431Z,100894.09
2018-03-27T04:17:21.990Z,100895.66
2018-03-27T04:19:50.542Z,100894.78
2018-03-27T04:22:19.975Z,100896.88
2018-03-27T04:24:48.583Z,100894.20
2018-03-27T04:27:17.685Z,100898.95
2018-03-27T04:29:46.093Z,100902.84
2018-03-27T04:32:14.602Z,100903.14
2018-03-27T04:34:43.074Z,100900.81
2018-03-27T04:37:11.532Z,100900.18
2018-03-27T04:39:39.995Z,100900.80
2018-03-27T04:42:08.523Z,100896.03
2018-03-27T04:44:37.251Z,100904.00
2018-03-27T04:47:05.786Z,100906.16
2018-03-27T04:49:34.936Z,100908.63
2018-03-27T04:52:04.187Z,100915.53
2018-03-27T04:54:33.609Z,100915.30
2018-03-27T04:57:02.065Z,100908.64
2018-03-27T04:59:30.492Z,100910.11
2018-03-27T05:01:58.975Z,100909.63
2018-03-27T05:04:27.668Z,100914.19
2018-03-27T05:06:56.178Z,100914.27
2018-03-27T05:09:24.912Z,100922.74
2018-03-27T05:11:53.615Z,100919.52
2018-03-27T05:14:21.993Z,100916.81
2018-03-27T05:16:50.386Z,100919.25
2018-03-27T05:19:19.326Z,100928.97
2018-03-27T05:21:47.774Z,100924.55
2018-03-27T05:24:16.396Z,100929.80
2018-03-27T05:26:44.853Z,100934.47
2018-03-27T05:29:14.083Z,100935.49
2018-03-27T05:31:42.848Z,100940.67
2018-03-27T05:34:11.482Z,100940.93
2018-03-27T05:36:40.036Z,100939.42
2018-03-27T05:39:09.002Z,100930.64
2018-03-27T05:41:37.631Z,100938.75
2018-03-27T05:44:06.407Z,100943.08
2018-03-27T05:46:35.416Z,100942.77
2018-03-27T05:49:03.820Z,100939.43
2018-03-27T05:51:32.332Z,100940.03
2018-03-27T05:54:00.916Z,100934.56
2018-03-27T05:56:29.619Z,100938.95
2018-03-27T05:58:58.173Z,100940.13
2018-03-27T06:01:30.855Z,100942.65
2018-03-27T06:03:59.237Z,100946.11
2018-03-27T06:06:28.096Z,100948.80
2018-03-27T06:08:56.914Z,100944.02
2018-03-27T06:11:25.449Z,100948.59
2018-03-27T06:13:54.259Z,100944.66
2018-03-27T06:16:22.682Z,100941.86
2018-03-27T06:18:51.166Z,100946.31
2018-03-27T06:21:19.832Z,100945.83
2018-03-27T06:23:48.582Z,100945.85
2018-03-27T06:26:17.085Z,100946.77
2018-03-27T06:28:45.503Z,100943.06
2018-03-27T06:31:14.143Z,100945.52
2018-03-27T06:33:42.808Z,100945.72
2018-03-27T06:36:11.596Z,100945.19
2018-03-27T06:38:40.411Z,100951.30
2018-03-27T06:41:08.971Z,100955.67
2018-03-27T06:43:37.503Z,100950.75
2018-03-27T06:46:06.083Z,100946.77
2018-03-27T06:48:35.231Z,100944.12
2018-03-27T06:51:04.032Z,100947.34
2018-03-27T06:53:32.564Z,100950.22
2018-03-27T06:56:01.864Z,100939.16
2018-03-27T06:58:30.628Z,100936.78
2018-03-27T07:01:00.193Z,100939.94
2018-03-27T07:03:29.398Z,100935.57
2018-03-27T07:05:58.046Z,100933.48
2018-03-27T07:08:27.338Z,100932.56
2018-03-27T07:10:55.759Z,100932.41
2018-03-27T07:13:24.713Z,100928.55
2018-03-27T07:15:53.698Z,100925.31
2018-03-27T07:18:22.216Z,100928.42
2018-03-27T07:20:50.752Z,100929.38
2018-03-27T07:23:19.210Z,100919.47
2018-03-27T07:25:47.603Z,100921.05
2018-03-27T07:28:16.016Z,100923.42
2018-03-27T07:30:44.434Z,100920.52
2018-03-27T07:33:13.014Z,100919.54
2018-03-27T07:35:41.523Z,100911.52
2018-03-27T07:38:09.941Z,100904.21
2018-03-27T07:40:38.372Z,100906.97
2018-03-27T07:43:06.827Z,100904.27
2018-03-27T07:45:35.310Z,100907.36
2018-03-27T07:48:03.717Z,100898.88
2018-03-27T07:50:32.131Z,100909.52
2018-03-27T07:53:00.536Z,100907.08
2018-03-27T07:55:29.010Z,100913.98
2018-03-27T07:57:57.448Z,100912.88
2018-03-27T08:00:25.876Z,100911.98
2018-03-27T08:02:54.268Z,100913.86
2018-03-27T08:05:22.808Z,100907.39
2018-03-27T08:07:51.303Z,100905.84
2018-03-27T08:10:20.030Z,100906.00
2018-03-27T08:12:48.613Z,100905.34
2018-03-27T08:15:17.361Z,100906.45
2018-03-27T08:17:45.749Z,100903.42
2018-03-27T08:20:14.174Z,100906.79
2018-03-27T08:22:42.617Z,100903.48
2018-03-27T08:25:11.011Z,100899.50
2018-03-27T08:27:39.550Z,100899.75
2018-03-27T08:30:08.054Z,100899.45
2018-03-27T08:32:36.455Z,100896.20
2018-03-27T08:35:04.849Z,100889.27
2018-03-27T08:37:33.289Z,100893.84
2018-03-27T08:40:01.698Z,100895.08
2018-03-27T08:42:30.077Z,100888.55
2018-03-27T08:44:58.467Z,100893.22
2018-03-27T08:47:27.004Z,100888.27
2018-03-27T08:49:55.515Z,100893.27
2018-03-27T08:52:23.953Z,100888.25
2018-03-27T08:54:52.407Z,100888.26
2018-03-27T08:57:20.840Z,100889.94
2018-03-27T08:59:49.362Z,100897.11
2018-03-27T09:02:17.753Z,100898.07
2018-03-27T09:04:46.193Z,100892.92
2018-03-27T09:07:14.649Z,100885.18
2018-03-27T09:09:43.100Z,100886.77
2018-03-27T09:12:11.490Z,100884.95
2018-03-27T09:14:39.966Z,100874.48
2018-03-27T09:17:08.400Z,100872.33
2018-03-27T09:19:36.820Z,100877.03
2018-03-27T09:22:05.242Z,100865.88
2018-03-27T09:24:33.716Z,100880.37
2018-03-27T09:27:02.146Z,100874.21
2018-03-27T09:29:30.704Z,100874.05
2018-03-27T09:34:33.856Z,100865.52
2018-03-27T09:37:02.245Z,100866.28
2018-03-27T09:39:30.635Z,100870.06
2018-03-27T09:41:59.068Z,100874.83
2018-03-27T09:44:27.551Z,100875.56
2018-03-27T09:46:55.961Z,100878.11
2018-03-27T09:49:24.447Z,100872.95
2018-03-27T09:51:52.856Z,100871.73
2018-03-27T09:54:21.321Z,100870.97
2018-03-27T09:56:50.082Z,100877.62
2018-03-27T09:59:18.650Z,100872.24
2018-03-27T10:01:47.117Z,100870.03
2018-03-27T10:04:15.510Z,100876.02
2018-03-27T10:06:43.915Z,100878.94
2018-03-27T10:09:12.382Z,100872.66
2018-03-27T10:11:40.829Z,100868.97
2018-03-27T10:14:09.236Z,100864.41
2018-03-27T10:16:37.764Z,100860.67
2018-03-27T10:19:06.250Z,100853.84
2018-03-27T10:21:34.629Z,100857.08
2018-03-27T10:24:03.211Z,100856.97
2018-03-27T10:26:31.683Z,100854.23
2018-03-27T10:29:00.214Z,100848.61
2018-03-27T10:31:28.710Z,100848.13
2018-03-27T10:33:57.405Z,100848.75
2018-03-27T10:36:25.885Z,100844.61
2018-03-27T10:38:54.383Z,100845.44
2018-03-27T10:41:22.786Z,100840.28
2018-03-27T10:43:51.278Z,100843.84
2018-03-27T10:46:19.733Z,100839.42
2018-03-27T10:48:48.314Z,100839.91
2018-03-27T10:51:16.723Z,100831.63
2018-03-27T10:53:45.145Z,100826.63
2018-03-27T10:56:13.529Z,100822.08
2018-03-27T10:58:41.974Z,100823.03
2018-03-27T11:01:10.901Z,100825.17
2018-03-27T11:03:39.364Z,100818.20
2018-03-27T11:06:08.087Z,100820.08
2018-03-27T11:08:36.468Z,100813.79
2018-03-27T11:11:05.013Z,100826.80
2018-03-27T11:13:33.790Z,100821.53
2018-03-27T11:16:02.234Z,100820.38
2018-03-27T11:18:30.698Z,100817.76
2018-03-27T11:20:59.132Z,100822.30
2018-03-27T11:23:27.653Z,100823.72
2018-03-27T11:25:56.158Z,100825.70
2018-03-27T11:28:24.592Z,100823.87
2018-03-27T11:30:53.186Z,100825.19
2018-03-27T11:33:21.712Z,100819.66
2018-03-27T11:35:50.177Z,100827.81
2018-03-27T11:38:18.548Z,100828.73
2018-03-27T11:40:47.174Z,100828.37
2018-03-27T11:43:15.637Z,100822.14
2018-03-27T11:45:44.131Z,100815.52
2018-03-27T11:48:12.562Z,100821.54
2018-03-27T11:50:40.970Z,100814.20
2018-03-27T11:53:09.378Z,100816.09
2018-03-27T11:55:37.791Z,100810.50
2018-03-27T11:58:06.321Z,100812.97
2018-03-27T12:00:34.732Z,100814.19
2018-03-27T12:03:03.518Z,100806.58
2018-03-27T12:05:31.957Z,100814.40
2018-03-27T12:08:00.335Z,100805.20
2018-03-27T12:10:29.030Z,100807.45
2018-03-27T12:12:57.547Z,100802.73
2018-03-27T12:15:26.127Z,100795.05
2018-03-27T12:17:54.622Z,100796.59
2018-03-27T12:20:22.997Z,100788.57
2018-03-27T12:22:51.416Z,100789.43
2018-03-27T12:25:19.845Z,100783.62
2018-03-27T12:27:48.212Z,100791.72
2018-03-27T12:30:16.635Z,100775.27
2018-03-27T12:32:45.443Z,100778.94
2018-03-27T12:35:13.830Z,100779.57
2018-03-27T12:37:42.219Z,100771.46
2018-03-27T12:40:10.633Z,100779.50
2018-03-27T12:42:39.173Z,100771.25
2018-03-27T12:45:07.585Z,100767.42
2018-03-27T12:47:36.014Z,100763.56
2018-03-27T12:50:04.473Z,100759.77
2018-03-27T12:52:33.106Z,100766.29
2018-03-27T12:55:01.889Z,100756.14
2018-03-27T12:57:30.558Z,100759.58
2018-03-27T12:59:59.020Z,100748.14
2018-03-27T13:02:27.405Z,100746.13
2018-03-27T13:04:55.858Z,100737.77
2018-03-27T13:07:24.349Z,100740.81
2018-03-27T13:09:52.810Z,100738.70
2018-03-27T13:12:21.326Z,100741.65
2018-03-27T13:14:49.717Z,100741.14
2018-03-27T13:17:18.161Z,100730.94
2018-03-27T13:19:46.535Z,100733.06
2018-03-27T13:22:14.944Z,100738.15
2018-03-27T13:24:43.450Z,100727.66
2018-03-27T13:27:11.908Z,100730.50
2018-03-27T13:29:40.311Z,100720.88
2018-03-27T13:32:08.808Z,100727.64
2018-03-27T13:34:37.161Z,100726.34
2018-03-27T13:37:05.591Z,100722.55
2018-03-27T13:39:34.011Z,100726.11
2018-03-27T13:42:02.498Z,100714.28
2018-03-27T13:44:30.891Z,100709.66
2018-03-27T13:46:59.285Z,100706.43
2018-03-27T13:49:27.711Z,100707.23
2018-03-27T13:51:56.098Z,100696.50
2018-03-27T13:54:24.528Z,100697.00
2018-03-27T13:56:53.129Z,100695.72
2018-03-27T13:59:21.546Z,100695.05
2018-03-27T14:01:49.996Z,100688.56
2018-03-27T14:04:18.403Z,100690.34
2018-03-27T14:06:46.877Z,100683.09
2018-03-27T14:09:15.293Z,100684.70
2018-03-27T14:11:43.784Z,100680.48
2018-03-27T14:14:12.285Z,100680.23
2018-03-27T14:16:40.795Z,100677.32
2018-03-27T14:19:09.189Z,100669.52
2018-03-27T14:21:37.644Z,100678.05
2018-03-27T14:24:06.038Z,100674.19
2018-03-27T14:26:34.568Z,100672.86
2018-03-27T14:29:03.026Z,100673.33
2018-03-27T14:31:31.423Z,100676.63
2018-03-27T14:33:59.917Z,100680.74
2018-03-27T14:36:28.428Z,100675.84
2018-03-27T14:38:57.081Z,100668.19
2018-03-27T14:41:25.659Z,100664.79
2018-03-27T14:43:54.054Z,100667.45
2018-03-27T14:46:22.540Z,100657.36
2018-03-27T14:48:50.936Z,100652.05
2018-03-27T14:51:19.551Z,100646.78
2018-03-27T14:53:48.021Z,100656.49
2018-03-27T14:56:16.403Z,100652.19
2018-03-27T14:58:45.171Z,100650.11
2018-03-27T15:01:13.967Z,100643.97
2018-03-27T15:03:42.356Z,100647.02
2018-03-27T15:06:10.812Z,100643.35
2018-03-27T15:08:39.230Z,100644.75
2018-03-27T15:11:07.678Z,100638.52
2018-03-27T15:13:36.414Z,100638.52
2018-03-27T15:16:04.970Z,100638.62
2018-03-27T15:18:33.342Z,100632.48
2018-03-27T15:21:01.897Z,100634.84
2018-03-27T15:23:30.284Z,100624.41
2018-03-27T15:25:59.090Z,100622.27
2018-03-27T15:28:27.548Z,100619.45
2018-03-27T15:30:56.050Z,100621.78
2018-03-27T15:33:24.434Z,100619.97
2018-03-27T15:35:52.869Z,100616.83
2018-03-27T15:38:21.278Z,100614.42
2018-03-27T15:40:49.705Z,100616.92
2018-03-27T15:43:18.747Z,100613.08
2018-03-27T15:45:47.678Z,100598.95
2018-03-27T15:48:16.104Z,100602.53
2018-03-27T15:50:44.701Z,100599.02
2018-03-27T15:53:13.098Z,100592.94
2018-03-27T15:55:41.673Z,100593.69
2018-03-27T15:58:10.151Z,100584.56
2018-03-27T16:00:38.885Z,100581.31
2018-03-27T16:03:07.500Z,100582.20
2018-03-27T16:05:36.010Z,100579.17
2018-03-27T16:08:04.454Z,100573.64
2018-03-27T16:10:34.159Z,100574.42
2018-03-27T16:13:02.532Z,100578.77
2018-03-27T16:15:31.072Z,100564.40
2018-03-27T16:17:59.511Z,100554.25
2018-03-27T16:20:27.915Z,100562.08
2018-03-27T16:22:56.328Z,100566.49
2018-03-27T16:25:24.837Z,100570.94
2018-03-27T16:27:53.340Z,100574.83
2018-03-27T16:30:21.805Z,100578.69
2018-03-27T16:32:50.317Z,100573.07
2018-03-27T16:35:18.827Z,100574.84
2018-03-27T16:37:47.610Z,100573.02
2018-03-27T16:40:16.242Z,100580.01
2018-03-27T16:42:44.836Z,100579.98
2018-03-27T16:45:13.327Z,100570.88
2018-03-27T16:47:42.022Z,100568.25
2018-03-27T16:50:10.428Z,100572.67
2018-03-27T16:52:38.853Z,100573.16
2018-03-27T16:55:07.279Z,100571.25
2018-03-27T16:57:35.878Z,100577.66
2018-03-27T17:00:04.278Z,100580.77
2018-03-27T17:02:32.691Z,100575.16
2018-03-27T17:05:01.261Z,100577.25
2018-03-27T17:07:29.658Z,100581.11
2018-03-27T17:09:58.203Z,100581.62
2018-03-27T17:12:27.017Z,100581.22
2018-03-27T17:14:55.622Z,100588.17
2018-03-27T17:17:24.088Z,100581.43
2018-03-27T17:19:52.509Z,100585.25
2018-03-27T17:22:21.034Z,100580.88
2018-03-27T17:24:49.481Z,100579.83
2018-03-27T17:27:17.965Z,100569.58
2018-03-27T17:29:46.499Z,100573.40
2018-03-27T17:32:14.916Z,100573.52
2018-03-27T17:34:43.329Z,100574.02
2018-03-27T17:37:11.939Z,100571.22
2018-03-27T17:39:40.328Z,100567.01
2018-03-27T17:42:08.723Z,100567.28
2018-03-27T17:44:37.328Z,100563.53
2018-03-27T17:47:06.047Z,100562.26
2018-03-27T17:49:34.468Z,100564.95
2018-03-27T17:52:02.944Z,100565.42
2018-03-27T17:54:31.421Z,100568.55
2018-03-27T17:56:59.816Z,100567.52
2018-03-27T17:59:28.316Z,100573.08
2018-03-27T18:01:56.784Z,100572.31
2018-03-27T18:04:25.309Z,100572.39
2018-03-27T18:06:54.100Z,100571.90
2018-03-27T18:09:22.724Z,100574.12
2018-03-27T18:11:51.189Z,100575.50
2018-03-27T18:14:19.604Z,100577.84
2018-03-27T18:16:48.008Z,100578.52
2018-03-27T18:19:16.500Z,100573.70
2018-03-27T18:21:44.980Z,100563.09
2018-03-27T18:24:13.529Z,100569.88
2018-03-27T18:26:42.037Z,100567.11
2018-03-27T18:29:10.514Z,100571.80
2018-03-27T18:31:38.990Z,100574.17
2018-03-27T18:34:07.382Z,100574.61
2018-03-27T18:36:35.787Z,100567.36
2018-03-27T18:39:04.272Z,100567.80
2018-03-27T18:41:32.891Z,100568.93
2018-03-27T18:44:01.282Z,100563.84
2018-03-27T18:46:29.743Z,100568.48
2018-03-27T18:48:58.106Z,100566.83
2018-03-27T18:51:26.512Z,100575.22
2018-03-27T18:53:54.925Z,100571.19
2018-03-27T18:56:23.344Z,100569.69
2018-03-27T18:58:51.950Z,100574.58
2018-03-27T19:01:20.464Z,100580.72
2018-03-27T19:03:48.900Z,100564.06
2018-03-27T19:06:17.380Z,100568.49
2018-03-27T19:08:45.776Z,100572.74
2018-03-27T19:11:14.332Z,100568.13
2018-03-27T19:13:43.025Z,100568.67
2018-03-27T19:16:11.476Z,100572.61
2018-03-27T19:18:39.883Z,100578.50
2018-03-27T19:21:08.404Z,100576.20
2018-03-27T19:23:36.896Z,100584.41
2018-03-27T19:26:05.380Z,100588.27
2018-03-27T19:28:33.834Z,100592.42
2018-03-27T19:31:02.213Z,100587.15
2018-03-27T19:33:30.598Z,100585.69
2018-03-27T19:35:59.071Z,100579.30
2018-03-27T19:38:27.425Z,100578.30
2018-03-27T19:40:55.886Z,100577.41
2018-03-27T19:43:24.580Z,100573.42
2018-03-27T19:45:52.988Z,100572.33
2018-03-27T19:48:21.419Z,100566.64
2018-03-27T19:50:49.893Z,100569.61
2018-03-27T19:53:18.295Z,100563.75
2018-03-27T19:55:46.657Z,100559.81
2018-03-27T19:58:15.059Z,100551.01
2018-03-27T20:00:43.615Z,100544.81
2018-03-27T20:03:12.160Z,100550.77
2018-03-27T20:05:40.629Z,100547.77
2018-03-27T20:08:09.035Z,100549.95
2018-03-27T20:10:37.487Z,100551.31
2018-03-27T20:13:06.043Z,100552.54
2018-03-27T20:15:41.705Z,100552.77
2018-03-27T20:18:03.038Z,100555.06
2018-03-27T20:20:31.440Z,100548.87
2018-03-27T20:22:59.882Z,100548.53
2018-03-27T20:25:28.470Z,100539.95
2018-03-27T20:27:56.880Z,100544.73
2018-03-27T20:30:25.246Z,100534.30
2018-03-27T20:32:54.048Z,100537.47
2018-03-27T20:35:22.612Z,100541.16
2018-03-27T20:37:51.219Z,100534.68
2018-03-27T20:40:19.816Z,100539.27
2018-03-27T20:42:48.252Z,100533.41
2018-03-27T20:45:16.750Z,100533.83
2018-03-27T20:47:45.207Z,100530.12
2018-03-27T20:50:13.652Z,100534.96
2018-03-27T20:52:42.123Z,100532.42
2018-03-27T20:55:10.614Z,100527.78
2018-03-27T20:57:39.568Z,100529.98
2018-03-27T21:00:08.048Z,100529.83
2018-03-27T21:02:36.541Z,100529.09
2018-03-27T21:05:05.107Z,100532.84
2018-03-27T21:07:33.912Z,100522.52
2018-03-27T21:10:02.306Z,100517.45
2018-03-27T21:12:30.695Z,100522.72
2018-03-27T21:14:59.251Z,100510.97
2018-03-27T21:17:27.733Z,100508.97
2018-03-27T21:19:56.253Z,100506.87
2018-03-27T21:22:24.628Z,100501.98
2018-03-27T21:24:53.054Z,100514.95
2018-03-27T21:27:21.646Z,100509.55
2018-03-27T21:29:50.042Z,100516.80
2018-03-27T21:32:18.468Z,100513.72
2018-03-27T21:34:46.898Z,100511.20
2018-03-27T21:37:15.791Z,100498.66
2018-03-27T21:42:44.470Z,100512.42
2018-03-27T21:45:13.886Z,100492.83
2018-03-27T21:47:42.821Z,100494.70
2018-03-27T21:50:11.716Z,100488.30
2018-03-27T21:52:42.365Z,100485.39
2018-03-27T21:55:12.335Z,100489.20
2018-03-27T21:57:40.772Z,100495.75
2018-03-27T22:00:10.384Z,100493.94
2018-03-27T22:02:41.515Z,100490.82
2018-03-27T22:05:10.497Z,100484.55
2018-03-27T22:07:42.903Z,100482.99
2018-03-27T22:10:11.920Z,100469.52
2018-03-27T22:12:44.735Z,100469.19
2018-03-27T22:15:14.070Z,100472.95
2018-03-27T22:17:46.328Z,100475.33
2018-03-27T22:20:15.564Z,100469.13
2018-03-27T22:22:44.111Z,100477.27
2018-03-27T22:25:13.048Z,100480.78
2018-03-27T22:27:42.231Z,100480.56
2018-03-27T22:30:12.452Z,100469.73
2018-03-27T22:32:41.075Z,100471.49
2018-03-27T22:35:09.910Z,100466.77
2018-03-27T22:37:39.206Z,100459.25
2018-03-27T22:40:08.851Z,100456.77
2018-03-27T22:42:37.338Z,100458.56
2018-03-27T22:45:05.946Z,100451.38
2018-03-27T22:47:34.672Z,100451.02
2018-03-27T22:50:04.186Z,100446.16
2018-03-27T22:52:32.958Z,100436.77
2018-03-27T22:55:01.380Z,100439.91
2018-03-27T22:57:29.907Z,100433.51
2018-03-27T22:59:58.389Z,100426.39
2018-03-27T23:02:26.939Z,100430.80
2018-03-27T23:04:55.344Z,100428.05
2018-03-27T23:07:23.954Z,100430.93
2018-03-27T23:09:53.220Z,100423.67
2018-03-27T23:12:22.656Z,100419.28
2018-03-27T23:14:55.092Z,100415.71
2018-03-27T23:17:23.607Z,100418.69
2018-03-27T23:19:52.031Z,100415.03
2018-03-27T23:22:31.383Z,100416.36
2018-03-27T23:24:59.832Z,100412.58
2018-03-27T23:27:28.394Z,100412.23
2018-03-27T23:29:56.925Z,100405.84
2018-03-27T23:32:25.429Z,100417.82
2018-03-27T23:34:53.902Z,100421.96
2018-03-27T23:37:22.493Z,100414.67
2018-03-27T23:39:51.054Z,100417.00
2018-03-27T23:42:19.749Z,100416.57
2018-03-27T23:44:48.305Z,100423.34
2018-03-27T23:47:16.969Z,100419.59
2018-03-27T23:49:45.726Z,100416.80
2018-03-27T23:52:14.278Z,100411.30
2018-03-27T23:54:42.716Z,100421.33
2018-03-27T23:57:11.248Z,100406.33
2018-03-27T23:59:39.894Z,100403.48
